Ana Sayfa
METAR-TAF:

METAR-TAF

Havaalanları :

Edenton, Kuzey Carolina, Amerika Birleşik Devletleri

Enlem: 36-01-40N, Boylam: 076-34-02W, yükseklik: 6 m

Güncel hava durumu gözlemi

Rapor saat 07:35 UTC de 29 dakika önce yapıldı.
Rüzgar kuzeydan 8 kt
Sıcaklık 7°C
Nem 81%
Basınç 1011 hPa
Görüş mesafesi: 16.1 km
4800 ft yükseklikte parçalı bulutlu

METAR: KEDE 280735Z AUTO 01008KT 10SM SCT048 07/04 A2985 RMK AO2 T00700039

Saat: 03:04 (08:04 UTC)


TAF: eksik

4.000'den fazla havaalanı için hava durumu gözlemleri ve tahminleri (METAR ve TAF raporları).

Kullanılabilir istasyonlar harita üzerinde sarı ve kırmızı noktalarla gösterilir.

İstasyonun adını görmek için fareyi noktanın üzerinde gezdirin.

Sonrasında hava gözlem ve tahminlerini görmek için tıklayın.

Haritayı değiştirmek için: yaklaştırmak için siyah artı işaretli yeşil düğmeye ve uzaklaştırmak için de eksi işaretli düğmeye hızla tıklayın; bitişik haritalar için yeşil okları kullanın.


METAR-TAF: